Time;durP1;ratioP1;P1;durP2;ratioP2;P2;SDS_P1;SDS_P2;PMS_P1;PMS_P2;Temp;Humidity;BMP_temperature;BMP_pressure;BME280_temperature;BME280_humidity;BME280_pressure;Samples;Min_cycle;Max_cycle;Signal;HPM_P1;HPM_P2
2021/06/25 00:01:03;;;;;;;13.20;10.07;;;;;;;18.36;93.41;100890.91;5184716;28;20549;-78
2021/06/25 00:03:34;;;;;;;12.48;10.05;;;;;;;18.34;93.44;100898.09;5183746;28;20647;-78
2021/06/25 00:06:04;;;;;;;17.60;10.15;;;;;;;18.44;93.85;100899.22;5188850;28;20076;-78
2021/06/25 00:08:34;;;;;;;13.20;9.75;;;;;;;18.43;94.02;100900.16;5192666;28;20034;-78
2021/06/25 00:11:05;;;;;;;14.13;10.10;;;;;;;18.43;93.84;100897.50;5189839;28;20396;-77
2021/06/25 00:13:35;;;;;;;13.85;9.68;;;;;;;18.53;93.33;100893.34;5190651;28;20042;-78
2021/06/25 00:16:05;;;;;;;16.75;10.27;;;;;;;18.28;94.12;100886.09;5191375;28;20025;-78
2021/06/25 00:18:36;;;;;;;13.32;10.23;;;;;;;18.40;94.05;100887.13;5192618;28;20095;-77
2021/06/25 00:21:06;;;;;;;14.02;9.77;;;;;;;18.40;94.56;100887.97;5191447;28;20034;-78
2021/06/25 00:23:36;;;;;;;13.82;9.88;;;;;;;18.31;93.86;100887.72;5192721;28;20041;-78
2021/06/25 00:26:07;;;;;;;16.95;10.10;;;;;;;18.22;94.78;100902.31;5187762;28;20841;-78
2021/06/25 00:28:37;;;;;;;13.57;10.15;;;;;;;18.36;95.44;100902.31;5192047;28;20033;-79
2021/06/25 00:31:07;;;;;;;16.52;10.93;;;;;;;18.22;94.71;100904.97;5190816;28;20037;-77
2021/06/25 00:33:38;;;;;;;14.88;10.52;;;;;;;18.11;96.43;100906.53;5192512;28;20162;-77
2021/06/25 00:36:08;;;;;;;12.83;9.73;;;;;;;18.07;97.04;100905.03;5183065;28;20033;-77
2021/06/25 00:38:39;;;;;;;12.73;8.63;;;;;;;18.07;97.16;100894.47;5178280;28;20292;-78
2021/06/25 00:41:09;;;;;;;14.88;10.20;;;;;;;18.20;96.59;100898.06;5184803;28;20033;-79
2021/06/25 00:43:39;;;;;;;12.40;9.73;;;;;;;18.24;94.99;100904.84;5200655;28;20033;-78
2021/06/25 00:46:11;;;;;;;14.15;10.00;;;;;;;18.36;94.64;100890.91;5190359;28;20028;-76
2021/06/25 00:48:42;;;;;;;15.00;10.07;;;;;;;18.32;94.34;100894.69;5190670;28;20017;-79
2021/06/25 00:51:12;;;;;;;13.07;10.07;;;;;;;18.15;95.50;100893.03;5188840;28;20025;-78
2021/06/25 00:53:43;;;;;;;13.03;10.43;;;;;;;17.95;95.67;100895.19;5188207;28;20103;-77
2021/06/25 00:56:14;;;;;;;16.10;11.02;;;;;;;18.01;96.19;100889.56;5187658;28;20283;-79
2021/06/25 00:58:44;;;;;;;15.45;10.63;;;;;;;17.98;96.11;100895.03;5192145;28;20438;-78
2021/06/25 01:01:14;;;;;;;13.50;9.97;;;;;;;17.94;96.36;100899.66;5188304;28;20038;-78
2021/06/25 01:03:45;;;;;;;14.00;10.02;;;;;;;17.87;96.32;100897.47;5180633;28;20755;-78
2021/06/25 01:06:15;;;;;;;15.93;10.30;;;;;;;17.85;96.39;100900.19;5188789;28;20036;-78
2021/06/25 01:08:45;;;;;;;16.83;11.10;;;;;;;17.87;96.60;100897.47;5186669;28;20034;-78
2021/06/25 01:11:17;;;;;;;14.95;10.23;;;;;;;17.72;97.91;100893.97;5181127;28;20411;-78
2021/06/25 01:13:48;;;;;;;14.32;10.20;;;;;;;18.00;96.18;100909.00;5185566;28;20113;-79
2021/06/25 01:16:18;;;;;;;13.10;9.93;;;;;;;17.97;95.50;100904.75;5187704;28;20100;-78
2021/06/25 01:18:48;;;;;;;13.75;10.20;;;;;;;18.00;96.16;100906.38;5188307;28;20613;-79
2021/06/25 01:21:19;;;;;;;15.27;9.77;;;;;;;17.83;95.83;100914.47;5187707;28;20034;-78
2021/06/25 01:23:49;;;;;;;15.40;9.95;;;;;;;17.77;96.57;100904.22;5187314;28;20029;-76
2021/06/25 01:26:20;;;;;;;11.80;9.32;;;;;;;17.54;97.96;100897.69;5187969;28;20029;-77
2021/06/25 01:28:50;;;;;;;15.02;9.60;;;;;;;17.71;96.19;100897.53;5189347;28;20026;-77
2021/06/25 01:31:20;;;;;;;11.75;9.63;;;;;;;17.80;95.77;100901.44;5187696;28;20033;-78
2021/06/25 01:33:51;;;;;;;12.82;9.65;;;;;;;17.70;96.38;100894.97;5186866;28;20025;-78
2021/06/25 01:36:21;;;;;;;11.25;8.82;;;;;;;17.63;96.91;100896.28;5185274;28;20638;-78
2021/06/25 01:38:52;;;;;;;12.52;8.90;;;;;;;17.65;96.84;100897.88;5186415;28;20022;-78
2021/06/25 01:41:22;;;;;;;13.60;9.55;;;;;;;17.54;97.35;100902.13;5183983;28;20030;-79
2021/06/25 01:43:55;;;;;;;10.48;8.40;;;;;;;17.63;97.15;100897.13;5188910;28;20128;-79
2021/06/25 01:46:26;;;;;;;14.45;9.68;;;;;;;17.62;97.21;100891.94;5185253;28;20030;-79
2021/06/25 01:48:57;;;;;;;12.52;9.18;;;;;;;17.61;96.94;100895.50;5188612;28;20440;-79
2021/06/25 01:51:27;;;;;;;14.10;9.33;;;;;;;17.57;96.81;100894.00;5187897;28;20117;-78
2021/06/25 01:53:57;;;;;;;12.77;9.13;;;;;;;17.52;97.43;100896.06;5186884;28;20289;-77
2021/06/25 01:56:28;;;;;;;13.50;9.82;;;;;;;17.57;99.05;100888.72;5188696;28;20049;-77
2021/06/25 01:58:58;;;;;;;13.07;9.23;;;;;;;17.50;100.00;100882.09;5185208;28;20753;-78
2021/06/25 02:01:28;;;;;;;14.25;8.80;;;;;;;17.51;98.89;100881.16;5189868;28;20026;-78
2021/06/25 02:03:58;;;;;;;16.10;8.93;;;;;;;17.57;99.56;100875.50;5181269;28;20083;-82
2021/06/25 02:06:29;;;;;;;12.90;8.73;;;;;;;17.60;99.25;100867.38;5179982;28;20076;-82
2021/06/25 02:09:01;;;;;;;12.38;9.23;;;;;;;17.35;99.58;100867.13;5179883;28;20108;-77
2021/06/25 02:11:31;;;;;;;15.50;10.07;;;;;;;16.99;100.00;100872.69;5180458;28;20021;-80
2021/06/25 02:14:02;;;;;;;14.27;8.82;;;;;;;17.24;100.00;100877.44;5185654;28;20538;-78
2021/06/25 02:16:32;;;;;;;11.77;8.90;;;;;;;17.49;100.00;100870.66;5188976;28;20711;-78
2021/06/25 02:19:02;;;;;;;11.38;8.82;;;;;;;17.46;100.00;100875.28;5188819;28;20487;-77
2021/06/25 02:21:33;;;;;;;12.32;9.27;;;;;;;17.52;100.00;100869.63;5185060;28;20026;-78
2021/06/25 02:24:03;;;;;;;11.52;8.73;;;;;;;17.47;99.52;100869.06;5186920;28;20631;-77
2021/06/25 02:26:34;;;;;;;11.20;8.93;;;;;;;17.59;100.00;100870.97;5186691;28;20033;-78
2021/06/25 02:29:04;;;;;;;15.07;8.65;;;;;;;17.51;100.00;100873.22;5187256;28;20049;-78
2021/06/25 02:31:34;;;;;;;12.88;8.98;;;;;;;17.34;100.00;100873.34;5189882;28;20033;-79
2021/06/25 02:34:05;;;;;;;11.68;8.57;;;;;;;17.49;100.00;100860.09;5185124;28;20046;-79
2021/06/25 02:36:35;;;;;;;11.95;9.00;;;;;;;17.49;100.00;100865.38;5186666;28;20037;-80
2021/06/25 02:39:05;;;;;;;13.40;8.35;;;;;;;17.28;99.44;100866.59;5189722;28;20095;-79
2021/06/25 02:41:36;;;;;;;10.20;8.73;;;;;;;17.29;100.00;100859.53;5186033;28;20056;-81
2021/06/25 02:44:06;;;;;;;11.07;7.88;;;;;;;17.32;99.87;100856.72;5189187;28;20491;-81
2021/06/25 02:46:37;;;;;;;13.55;8.75;;;;;;;17.16;100.00;100855.91;5186835;28;20541;-77
2021/06/25 02:49:07;;;;;;;12.88;8.48;;;;;;;17.19;100.00;100856.59;5191029;28;20056;-77
2021/06/25 02:51:37;;;;;;;10.82;8.13;;;;;;;17.05;100.00;100847.72;5189574;28;20022;-77
2021/06/25 02:54:08;;;;;;;12.20;8.75;;;;;;;16.99;100.00;100843.66;5197245;28;20037;-78
2021/06/25 02:56:38;;;;;;;13.82;8.45;;;;;;;17.02;100.00;100843.50;5199948;28;20064;-82
2021/06/25 02:59:08;;;;;;;13.05;8.98;;;;;;;16.94;100.00;100844.88;5187648;28;20580;-80
2021/06/25 03:01:39;;;;;;;14.05;8.15;;;;;;;17.00;100.00;100834.78;5187365;28;20044;-79
2021/06/25 03:04:09;;;;;;;15.85;8.20;;;;;;;17.10;99.82;100840.38;5185860;28;20142;-79
2021/06/25 03:06:39;;;;;;;10.90;7.15;;;;;;;17.22;100.00;100837.03;5185969;28;20053;-79
2021/06/25 03:09:10;;;;;;;10.45;7.60;;;;;;;17.26;99.15;100833.28;5188410;28;20083;-78
2021/06/25 03:11:40;;;;;;;11.48;7.20;;;;;;;17.29;99.71;100833.13;5186273;28;20440;-77
2021/06/25 03:14:10;;;;;;;12.82;7.00;;;;;;;17.14;99.64;100839.28;5191750;28;20049;-79
2021/06/25 03:16:40;;;;;;;10.32;7.10;;;;;;;17.16;99.88;100829.50;5189526;28;20153;-78
2021/06/25 03:19:11;;;;;;;10.85;7.20;;;;;;;17.11;98.85;100827.09;5188003;28;20399;-79
2021/06/25 03:21:41;;;;;;;9.43;6.03;;;;;;;17.16;100.00;100838.25;5186697;28;20030;-78
2021/06/25 03:24:12;;;;;;;10.85;7.65;;;;;;;16.99;100.00;100829.63;5186961;28;20031;-79
2021/06/25 03:26:42;;;;;;;10.18;7.35;;;;;;;17.13;99.63;100824.38;5186645;28;20037;-78
2021/06/25 03:29:12;;;;;;;14.07;7.68;;;;;;;17.02;100.00;100832.06;5187763;28;20389;-78
2021/06/25 03:31:42;;;;;;;9.77;7.15;;;;;;;17.04;100.00;100824.91;5186340;28;20538;-78
2021/06/25 03:34:13;;;;;;;10.57;7.50;;;;;;;17.09;100.00;100825.47;5184219;28;20022;-78
2021/06/25 03:36:43;;;;;;;8.98;6.88;;;;;;;17.27;98.10;100837.63;5184638;28;20084;-77
2021/06/25 03:39:13;;;;;;;11.98;7.40;;;;;;;17.27;99.02;100835.84;5186419;28;20056;-79
2021/06/25 03:41:44;;;;;;;10.13;6.50;;;;;;;17.44;97.74;100837.50;5181815;28;20025;-79
2021/06/25 03:44:14;;;;;;;11.65;6.15;;;;;;;17.49;95.81;100824.88;5186741;28;20029;-78
2021/06/25 03:46:44;;;;;;;8.65;5.75;;;;;;;17.42;94.63;100826.19;5185907;28;20036;-78
2021/06/25 03:49:15;;;;;;;10.07;6.10;;;;;;;17.42;95.69;100821.75;5189774;28;20032;-78
2021/06/25 03:51:45;;;;;;;9.23;5.50;;;;;;;17.59;95.11;100826.03;5185746;28;20785;-78
2021/06/25 03:54:15;;;;;;;8.38;6.07;;;;;;;17.60;95.10;100825.94;5186063;28;20028;-78
2021/06/25 03:56:46;;;;;;;8.27;5.90;;;;;;;17.53;96.24;100829.91;5184399;28;20033;-79
2021/06/25 03:59:16;;;;;;;10.00;5.82;;;;;;;17.44;95.69;100832.22;5186582;28;20029;-79
2021/06/25 04:01:47;;;;;;;12.20;6.40;;;;;;;17.35;96.52;100830.13;5188872;28;20021;-79
2021/06/25 04:04:18;;;;;;;7.82;5.63;;;;;;;17.30;97.52;100824.25;5185269;28;20018;-78
2021/06/25 04:06:48;;;;;;;11.70;6.40;;;;;;;17.29;98.33;100826.03;5188308;28;20029;-79
2021/06/25 04:09:19;;;;;;;10.10;6.43;;;;;;;17.27;98.43;100819.13;5188432;28;20030;-78
2021/06/25 04:11:49;;;;;;;14.27;7.10;;;;;;;17.20;99.55;100820.44;5181876;28;20022;-78
2021/06/25 04:14:19;;;;;;;10.77;6.50;;;;;;;17.26;98.32;100825.34;5184300;28;20036;-78
2021/06/25 04:16:50;;;;;;;11.30;7.13;;;;;;;17.27;100.00;100827.03;5185015;28;20121;-78
2021/06/25 04:19:20;;;;;;;10.02;6.50;;;;;;;17.29;99.66;100819.91;5185461;28;20034;-78
2021/06/25 04:21:51;;;;;;;11.60;7.63;;;;;;;17.39;98.78;100823.72;5185121;28;20041;-79
2021/06/25 04:24:22;;;;;;;13.93;7.63;;;;;;;17.81;97.12;100823.81;5186741;28;20034;-78
2021/06/25 04:26:52;;;;;;;12.60;7.05;;;;;;;17.74;96.31;100822.47;5188410;28;20105;-78
2021/06/25 04:29:22;;;;;;;9.98;7.18;;;;;;;17.74;96.39;100828.59;5187026;28;20113;-79
2021/06/25 04:31:54;;;;;;;9.93;7.75;;;;;;;17.56;98.16;100834.13;5186720;28;20053;-78
2021/06/25 04:34:24;;;;;;;11.60;7.70;;;;;;;17.72;97.69;100837.56;5184292;28;20071;-78
2021/06/25 04:36:55;;;;;;;15.07;8.20;;;;;;;17.63;98.11;100824.91;5190534;28;20627;-78
2021/06/25 04:39:25;;;;;;;11.38;8.13;;;;;;;17.66;98.50;100830.84;5186118;28;20109;-78
2021/06/25 04:41:55;;;;;;;12.80;7.50;;;;;;;17.84;97.63;100834.19;5184082;28;20030;-78
2021/06/25 04:44:25;;;;;;;13.00;8.35;;;;;;;17.70;97.43;100836.81;5183978;28;20284;-79
2021/06/25 04:46:56;;;;;;;13.40;8.00;;;;;;;17.77;97.00;100838.13;5183395;28;20034;-78
2021/06/25 04:49:26;;;;;;;12.35;8.25;;;;;;;17.68;96.67;100844.00;5185493;28;20060;-78
2021/06/25 04:51:56;;;;;;;11.52;7.30;;;;;;;17.77;96.45;100827.56;5187722;28;20038;-78
2021/06/25 04:54:27;;;;;;;12.30;7.67;;;;;;;17.54;98.42;100830.75;5186977;28;20075;-78
2021/06/25 04:56:57;;;;;;;14.37;8.33;;;;;;;17.34;98.26;100834.56;5187389;28;20280;-79
2021/06/25 04:59:27;;;;;;;15.32;8.13;;;;;;;17.31;99.21;100839.16;5187929;28;20284;-78
2021/06/25 05:01:58;;;;;;;11.00;7.00;;;;;;;17.49;98.54;100848.69;5187292;28;20060;-80
2021/06/25 05:04:28;;;;;;;12.43;7.30;;;;;;;17.65;95.72;100852.09;5188014;28;20045;-79
2021/06/25 05:06:58;;;;;;;13.40;7.93;;;;;;;17.54;97.82;100855.41;5187084;28;20036;-79
2021/06/25 05:09:29;;;;;;;11.02;7.18;;;;;;;17.86;95.50;100845.53;5185598;28;20035;-79
2021/06/25 05:11:59;;;;;;;12.25;8.18;;;;;;;17.70;97.00;100844.75;5184711;28;20072;-79
2021/06/25 05:14:30;;;;;;;11.27;7.82;;;;;;;17.44;99.29;100848.94;5187262;28;20133;-78
2021/06/25 05:17:01;;;;;;;9.60;7.27;;;;;;;17.80;96.88;100849.38;5186077;28;20108;-80
2021/06/25 05:19:31;;;;;;;9.70;6.82;;;;;;;17.90;96.07;100850.53;5187854;28;20285;-79
2021/06/25 05:22:02;;;;;;;10.10;7.22;;;;;;;17.89;94.98;100854.13;5183523;28;20061;-79
2021/06/25 05:24:32;;;;;;;10.90;7.88;;;;;;;17.89;93.62;100853.25;5187593;28;20030;-78
2021/06/25 05:27:03;;;;;;;9.73;7.20;;;;;;;18.27;91.33;100860.56;5185741;28;20033;-79
2021/06/25 05:29:33;;;;;;;11.43;7.25;;;;;;;18.44;91.44;100851.56;5188274;28;20643;-79
2021/06/25 05:32:04;;;;;;;10.43;7.85;;;;;;;18.69;90.44;100862.31;5186858;28;20014;-79
2021/06/25 05:34:35;;;;;;;19.33;7.63;;;;;;;18.81;89.02;100854.41;5186441;28;20022;-80
2021/06/25 05:37:05;;;;;;;10.00;7.50;;;;;;;18.91;87.86;100856.34;5186641;28;20060;-79
2021/06/25 05:39:35;;;;;;;12.70;7.43;;;;;;;18.48;90.08;100855.72;5185668;28;20284;-79
2021/06/25 05:42:06;;;;;;;14.73;7.88;;;;;;;18.60;88.68;100863.75;5182595;28;20837;-79
2021/06/25 05:44:36;;;;;;;11.43;8.00;;;;;;;18.07;91.39;100868.00;5185005;28;20033;-79
2021/06/25 05:47:07;;;;;;;11.85;8.50;;;;;;;18.32;88.09;100868.22;5187258;28;20797;-79
2021/06/25 05:49:37;;;;;;;12.63;8.65;;;;;;;18.11;89.88;100866.84;5187340;28;20067;-79
2021/06/25 05:52:07;;;;;;;12.63;8.40;;;;;;;18.13;90.22;100872.91;5189140;28;20552;-79
2021/06/25 05:54:37;;;;;;;12.70;8.73;;;;;;;18.22;90.44;100880.28;5189448;28;20058;-79
2021/06/25 05:57:08;;;;;;;13.20;9.25;;;;;;;18.30;88.05;100883.31;5191310;28;20112;-79
2021/06/25 05:59:38;;;;;;;13.52;9.30;;;;;;;18.62;87.84;100872.44;5191636;28;20034;-79
2021/06/25 06:02:08;;;;;;;12.27;8.40;;;;;;;18.24;89.35;100870.47;5189551;28;20030;-79
2021/06/25 06:04:39;;;;;;;14.30;9.53;;;;;;;18.02;91.24;100878.03;5184372;28;20022;-79
2021/06/25 06:07:10;;;;;;;15.23;9.02;;;;;;;18.34;90.37;100879.56;5184138;28;20284;-79
2021/06/25 06:09:41;;;;;;;14.93;8.35;;;;;;;18.57;87.84;100884.25;5185996;28;20051;-80
2021/06/25 06:12:11;;;;;;;13.30;7.95;;;;;;;18.65;89.54;100892.59;5181121;28;20037;-79
2021/06/25 06:14:41;;;;;;;11.43;7.72;;;;;;;18.59;89.19;100885.88;5188131;28;20053;-79
2021/06/25 06:17:11;;;;;;;11.77;8.00;;;;;;;18.28;93.09;100886.09;5192545;28;20021;-79
2021/06/25 06:19:44;;;;;;;14.98;8.45;;;;;;;18.16;91.31;100897.38;5189423;28;20277;-79
2021/06/25 06:33:36;;;;;;;11.32;7.85;;;;;;;18.08;91.01;100899.66;5189467;28;20396;-78
2021/06/25 06:36:12;;;;;;;11.23;7.70;;;;;;;17.78;93.10;100905.94;5187966;28;20648;-79
2021/06/25 06:38:43;;;;;;;13.10;7.90;;;;;;;17.83;93.77;100906.53;5190228;28;20087;-79
2021/06/25 06:41:14;;;;;;;11.43;8.00;;;;;;;18.00;91.34;100903.72;5187284;28;20026;-80
2021/06/25 06:43:44;;;;;;;11.40;7.65;;;;;;;18.18;89.32;100913.19;5196181;28;20059;-81
2021/06/25 06:46:15;;;;;;;12.07;8.32;;;;;;;17.80;93.46;100912.00;5196516;28;20037;-81
2021/06/25 06:48:47;;;;;;;13.90;8.82;;;;;;;17.64;92.35;100913.84;5180246;28;20396;-79
2021/06/25 06:51:18;;;;;;;11.50;7.97;;;;;;;17.62;92.32;100913.09;5180023;28;20038;-80
2021/06/25 06:53:50;;;;;;;11.15;7.57;;;;;;;18.10;90.79;100905.72;5179692;28;20061;-82
2021/06/25 06:56:21;;;;;;;12.25;7.43;;;;;;;18.98;86.31;100904.50;5180505;28;20030;-79
2021/06/25 06:58:53;;;;;;;10.85;7.28;;;;;;;19.05;84.38;100898.72;5181170;28;20439;-83
2021/06/25 07:01:24;;;;;;;9.77;6.95;;;;;;;18.91;84.07;100898.75;5197079;28;20040;-82
2021/06/25 07:03:55;;;;;;;12.48;7.68;;;;;;;18.75;85.89;100899.84;5203737;28;20033;-81
2021/06/25 07:06:26;;;;;;;9.85;7.43;;;;;;;18.54;86.65;100900.34;5200685;28;20053;-78
2021/06/25 07:08:56;;;;;;;13.02;7.18;;;;;;;18.70;85.80;100911.66;5183353;28;20279;-80
2021/06/25 07:11:27;;;;;;;9.88;7.32;;;;;;;18.35;87.69;100907.72;5183267;28;20113;-81
2021/06/25 07:13:57;;;;;;;10.60;6.82;;;;;;;18.97;83.01;100900.16;5183123;28;20041;-80
2021/06/25 07:16:27;;;;;;;10.13;7.53;;;;;;;18.55;83.93;100902.88;5183407;28;20045;-82
2021/06/25 07:18:57;;;;;;;12.13;7.50;;;;;;;18.57;84.96;100905.44;5183424;28;20265;-78
2021/06/25 07:21:28;;;;;;;11.25;6.70;;;;;;;18.72;84.64;100915.06;5191447;28;20303;-79
2021/06/25 07:24:01;;;;;;;12.97;6.87;;;;;;;19.28;82.13;100902.53;5184434;28;20551;-80
2021/06/25 07:26:31;;;;;;;13.68;6.75;;;;;;;19.09;83.26;100910.81;5193936;28;20696;-79
2021/06/25 07:29:02;;;;;;;11.10;7.67;;;;;;;18.66;86.30;100907.53;5193313;28;20038;-79
2021/06/25 07:31:32;;;;;;;13.10;7.68;;;;;;;18.56;86.84;100915.19;5193815;28;20325;-80
2021/06/25 07:34:02;;;;;;;12.18;7.65;;;;;;;18.43;89.04;100913.38;5193436;28;20033;-80
2021/06/25 07:36:33;;;;;;;13.30;7.50;;;;;;;18.46;88.51;100918.50;5193492;28;20080;-79
2021/06/25 07:39:06;;;;;;;12.60;7.70;;;;;;;18.30;87.22;100908.00;5189798;28;20109;-79
2021/06/25 07:41:37;;;;;;;12.50;8.20;;;;;;;18.28;86.76;100909.03;5193136;28;20029;-78
2021/06/25 07:44:08;;;;;;;12.38;7.40;;;;;;;18.44;85.45;100904.50;5192231;28;20025;-80
2021/06/25 07:46:38;;;;;;;15.60;8.32;;;;;;;18.64;83.40;100898.78;5194258;28;20026;-80
2021/06/25 07:49:08;;;;;;;10.32;7.07;;;;;;;19.16;84.09;100900.66;5192014;28;20578;-79
2021/06/25 07:51:39;;;;;;;12.43;7.17;;;;;;;19.29;83.33;100893.63;5192526;28;20020;-80
2021/06/25 07:54:09;;;;;;;13.57;7.25;;;;;;;19.03;83.49;100895.31;5190128;28;20288;-83
2021/06/25 07:56:39;;;;;;;13.23;7.70;;;;;;;19.18;83.81;100893.47;5202391;28;20060;-79
2021/06/25 07:59:10;;;;;;;11.52;6.78;;;;;;;19.59;81.74;100892.44;5190868;28;20036;-78
2021/06/25 08:01:40;;;;;;;9.82;7.18;;;;;;;19.77;81.91;100887.69;5198985;28;20065;-78
2021/06/25 08:04:10;;;;;;;12.98;7.13;;;;;;;19.77;82.31;100890.34;5202701;28;20096;-77
2021/06/25 08:06:40;;;;;;;11.15;7.20;;;;;;;20.35;80.59;100886.22;5195448;28;20029;-86
2021/06/25 08:09:11;;;;;;;12.05;7.57;;;;;;;20.26;80.60;100875.41;5181249;28;20024;-80
2021/06/25 08:11:41;;;;;;;13.80;7.33;;;;;;;20.35;83.73;100886.22;5182207;28;20098;-81
2021/06/25 08:14:11;;;;;;;11.50;7.88;;;;;;;20.05;82.39;100892.81;5181115;28;20272;-83
2021/06/25 08:16:42;;;;;;;11.27;7.25;;;;;;;20.63;81.09;100885.94;5186307;28;20036;-83
2021/06/25 08:19:12;;;;;;;13.25;8.10;;;;;;;20.52;81.95;100883.22;5182218;28;20511;-79
2021/06/25 08:21:42;;;;;;;10.38;7.63;;;;;;;21.01;80.74;100887.56;5182048;28;20074;-79
2021/06/25 08:24:13;;;;;;;11.55;7.88;;;;;;;20.50;83.61;100894.91;5185421;28;20057;-79
2021/06/25 08:26:43;;;;;;;13.77;6.88;;;;;;;20.72;81.88;100893.28;5179953;28;20457;-78
2021/06/25 08:29:13;;;;;;;12.10;8.32;;;;;;;20.62;83.60;100900.19;5181374;28;20515;-80
2021/06/25 08:31:44;;;;;;;11.77;7.53;;;;;;;20.94;81.24;100899.63;5181266;28;20013;-80
2021/06/25 08:34:14;;;;;;;12.88;8.25;;;;;;;20.72;82.03;100896.75;5192496;28;20030;-80
2021/06/25 08:36:46;;;;;;;11.25;8.13;;;;;;;20.44;82.10;100896.19;5190122;28;20483;-80
2021/06/25 08:39:16;;;;;;;12.77;7.88;;;;;;;21.10;81.05;100891.34;5188010;28;20080;-79
2021/06/25 08:41:46;;;;;;;14.33;7.80;;;;;;;21.83;76.56;100887.53;5192977;28;20364;-78
2021/06/25 08:44:17;;;;;;;14.23;8.52;;;;;;;21.22;78.76;100890.44;5189540;28;20280;-79
2021/06/25 08:46:47;;;;;;;11.40;8.15;;;;;;;21.20;77.61;100887.91;5193441;28;20025;-80
2021/06/25 08:49:19;;;;;;;11.88;9.18;;;;;;;20.67;80.80;100889.25;5189598;28;20438;-80
2021/06/25 08:51:49;;;;;;;14.43;9.75;;;;;;;20.73;81.72;100892.31;5193114;28;20022;-77
2021/06/25 08:54:20;;;;;;;13.07;10.40;;;;;;;20.76;80.06;100897.41;5189944;28;20026;-80
2021/06/25 08:56:50;;;;;;;14.23;10.23;;;;;;;20.42;83.00;100898.09;5193198;28;20131;-79
2021/06/25 08:59:21;;;;;;;12.95;9.32;;;;;;;20.67;85.33;100890.94;5190244;28;20033;-79
2021/06/25 09:01:51;;;;;;;14.40;10.10;;;;;;;20.51;81.55;100893.94;5190729;28;20771;-79
2021/06/25 09:04:33;;;;;;;13.10;9.57;;;;;;;20.46;82.46;100888.13;5189647;28;20119;-79
2021/06/25 09:07:07;;;;;;;13.25;9.68;;;;;;;20.35;84.68;100901.31;5190612;28;20037;-78
2021/06/25 09:09:42;;;;;;;12.48;9.57;;;;;;;20.52;83.54;100887.69;5190785;28;20029;-79
2021/06/25 09:12:21;;;;;;;14.15;10.27;;;;;;;20.25;84.16;100885.16;5188711;28;20689;-79
2021/06/25 09:15:13;;;;;;;14.93;10.40;;;;;;;20.02;85.61;100885.94;5184781;28;20120;-79
2021/06/25 09:18:03;;;;;;;14.07;10.18;;;;;;;20.60;84.31;100880.84;5189411;28;20030;-79
2021/06/25 09:20:45;;;;;;;13.52;10.13;;;;;;;21.32;81.31;100879.00;5189173;28;20038;-78
2021/06/25 09:23:22;;;;;;;13.75;9.63;;;;;;;21.55;81.61;100877.28;5188988;28;20033;-80
2021/06/25 09:25:58;;;;;;;12.48;10.02;;;;;;;21.83;82.84;100879.56;5186826;28;20029;-80
2021/06/25 09:28:34;;;;;;;14.65;9.60;;;;;;;21.83;80.61;100877.75;5191372;28;20084;-80
2021/06/25 09:31:21;;;;;;;15.73;10.95;;;;;;;22.42;77.32;100871.28;5190730;28;20072;-80
2021/06/25 09:33:53;;;;;;;14.80;11.25;;;;;;;22.00;76.90;100871.97;5187547;28;20188;-80
2021/06/25 09:36:24;;;;;;;12.50;10.70;;;;;;;22.53;76.65;100870.41;5191480;28;20040;-80
2021/06/25 09:38:59;;;;;;;13.20;10.45;;;;;;;21.97;79.18;100871.34;5190831;28;20021;-80
2021/06/25 09:41:30;;;;;;;15.13;10.97;;;;;;;21.96;79.84;100873.19;5191283;28;20116;-80
2021/06/25 09:44:04;;;;;;;15.38;11.73;;;;;;;22.25;78.56;100861.06;5190716;28;20030;-77
2021/06/25 09:46:37;;;;;;;16.42;11.55;;;;;;;21.98;78.20;100859.72;5191228;28;20084;-80
2021/06/25 09:49:09;;;;;;;14.25;11.82;;;;;;;21.72;79.92;100863.56;5189396;28;20116;-78
2021/06/25 09:51:51;;;;;;;15.65;11.90;;;;;;;21.90;79.97;100862.16;5191557;28;20029;-79
2021/06/25 09:54:23;;;;;;;14.55;11.40;;;;;;;21.95;80.49;100865.31;5185043;28;20034;-79
2021/06/25 09:57:14;;;;;;;15.38;12.00;;;;;;;21.86;81.33;100872.19;5191237;28;20026;-80
2021/06/25 10:02:41;;;;;;;17.35;13.15;;;;;;;22.02;80.78;100866.50;5186359;28;20496;-77
2021/06/25 10:05:14;;;;;;;17.27;14.10;;;;;;;22.22;76.85;100866.66;5192280;28;20048;-79
2021/06/25 10:07:45;;;;;;;16.38;12.68;;;;;;;22.54;78.00;100866.78;5189352;28;20033;-77
2021/06/25 10:10:17;;;;;;;18.80;13.70;;;;;;;22.40;76.22;100867.88;5183562;28;20365;-78
2021/06/25 10:12:48;;;;;;;18.38;13.75;;;;;;;21.77;80.24;100864.06;5176378;28;20356;-79
2021/06/25 10:15:18;;;;;;;19.25;14.13;;;;;;;22.40;79.64;100861.72;5191178;28;20456;-79
2021/06/25 10:17:48;;;;;;;17.60;14.27;;;;;;;21.78;78.76;100861.25;5187289;28;20064;-79
2021/06/25 10:20:20;;;;;;;18.88;15.02;;;;;;;21.93;79.52;100856.59;5191159;28;20136;-78
2021/06/25 10:22:52;;;;;;;20.67;16.05;;;;;;;21.74;78.19;100856.31;5187791;28;20030;-78
2021/06/25 10:25:23;;;;;;;21.52;19.02;;;;;;;22.02;77.27;100850.53;5190574;28;20029;-79
2021/06/25 10:27:54;;;;;;;22.65;18.42;;;;;;;22.23;79.68;100855.03;5188998;28;20030;-79
2021/06/25 10:30:28;;;;;;;23.40;19.55;;;;;;;22.24;78.58;100853.22;5190111;28;20037;-79
2021/06/25 10:33:01;;;;;;;23.13;19.95;;;;;;;22.03;79.90;100858.41;5183368;28;20377;-79
2021/06/25 10:35:32;;;;;;;27.67;21.55;;;;;;;22.07;79.45;100859.03;5188089;28;20064;-79
2021/06/25 10:38:03;;;;;;;31.23;24.70;;;;;;;21.46;80.30;100857.56;5193137;28;20081;-78
2021/06/25 10:40:33;;;;;;;28.92;24.00;;;;;;;21.32;86.45;100862.19;5191861;28;20072;-78
2021/06/25 10:43:04;;;;;;;26.75;23.35;;;;;;;21.81;81.96;100863.72;5191045;28;20499;-78
2021/06/25 10:45:44;;;;;;;27.02;21.83;;;;;;;21.85;79.59;100864.31;5192414;28;20034;-79
2021/06/25 10:48:40;;;;;;;26.58;22.77;;;;;;;22.13;83.45;100854.06;5191290;28;20029;-78
2021/06/25 10:51:27;;;;;;;29.05;21.00;;;;;;;22.54;80.59;100856.13;5193250;28;20021;-79
2021/06/25 10:54:13;;;;;;;23.27;19.63;;;;;;;22.58;79.95;100854.94;5190095;28;20044;-79
2021/06/25 10:56:50;;;;;;;27.67;22.38;;;;;;;22.44;80.24;100857.84;5192266;28;20105;-78
2021/06/25 10:59:26;;;;;;;23.05;20.35;;;;;;;22.98;79.46;100864.91;5186855;28;20042;-78
2021/06/25 11:02:02;;;;;;;23.92;20.55;;;;;;;22.54;78.74;100856.13;5186841;28;20535;-78
2021/06/25 11:04:33;;;;;;;23.08;17.65;;;;;;;22.70;79.99;100855.59;5181021;28;20040;-78
2021/06/25 11:07:06;;;;;;;23.75;18.42;;;;;;;22.67;81.29;100862.16;5193393;28;20048;-79
2021/06/25 11:09:55;;;;;;;23.70;19.83;;;;;;;22.71;81.52;100854.63;5189332;28;20118;-79
2021/06/25 11:12:30;;;;;;;22.17;17.98;;;;;;;23.34;76.49;100852.03;5189709;28;20037;-80
2021/06/25 11:15:03;;;;;;;23.63;19.75;;;;;;;23.60;76.81;100858.72;5192558;28;20026;-79
2021/06/25 11:17:55;;;;;;;26.00;19.13;;;;;;;23.51;76.51;100845.31;5189954;28;20022;-79
2021/06/25 11:20:36;;;;;;;24.60;19.85;;;;;;;22.75;80.26;100847.25;5189340;28;20037;-79
2021/06/25 11:23:12;;;;;;;28.60;21.55;;;;;;;22.77;80.96;100846.16;5188609;28;20041;-79
2021/06/25 11:25:47;;;;;;;24.27;19.90;;;;;;;22.67;79.09;100848.84;5192883;28;20101;-79
2021/06/25 11:28:37;;;;;;;22.90;17.80;;;;;;;23.11;77.52;100838.88;5191180;28;20105;-79
2021/06/25 11:31:14;;;;;;;21.40;16.10;;;;;;;23.85;77.66;100847.66;5188626;28;20057;-78
2021/06/25 11:33:47;;;;;;;25.50;19.73;;;;;;;23.19;76.93;100831.97;5196333;28;20098;-80
2021/06/25 11:36:27;;;;;;;22.73;18.60;;;;;;;23.34;77.51;100833.38;5192608;28;20041;-79
2021/06/25 11:39:29;;;;;;;23.20;17.55;;;;;;;23.54;76.19;100827.19;5194506;28;20022;-79
2021/06/25 11:42:07;;;;;;;20.77;18.48;;;;;;;23.14;73.23;100836.84;5191343;28;20037;-79
2021/06/25 11:44:41;;;;;;;23.90;17.83;;;;;;;22.78;73.48;100837.19;5191386;28;20207;-79
2021/06/25 11:47:16;;;;;;;23.98;20.25;;;;;;;22.87;76.08;100840.91;5195549;28;20032;-79
2021/06/25 11:52:29;;;;;;;23.90;19.35;;;;;;;22.85;80.47;100842.88;5192875;28;20022;-79